Terminal Aerodrome Forecast
Issued by NWS Wilmington, NC

Home | Current Version | Previous Version | Text Only | Print | Product List | Glossary On
Versions: 1 2 3 4 5 6 7 8 9 10 11 12 13 14 15 16 17 18 19
000
FTUS42 KILM 280001 AAA
TAFILM
TAF AMD
KILM 280001Z 2800/2824 15011KT P6SM FEW025 SCT250
     FM280200 VRB03KT P6SM FEW250
      TEMPO 2808/2811 5SM BR
     FM281200 19008KT P6SM FEW025 SCT250
     FM281800 15008KT P6SM VCSH FEW050 SCT250=

USA.gov is the U.S. government's official web portal to all federal, state and local government web resources and services.